Time;durP1;ratioP1;P1;durP2;ratioP2;P2;SDS_P1;SDS_P2;PMS_P1;PMS_P2;Temp;Humidity;BMP_temperature;BMP_pressure;BME280_temperature;BME280_humidity;BME280_pressure;Samples;Min_cycle;Max_cycle;Signal;HPM_P1;HPM_P2
2021/01/07 00:00:12;;;;;;;25.80;15.73;;;3.60;99.90;;;;;;5033934;28;20180;-75
2021/01/07 00:02:38;;;;;;;27.50;15.57;;;3.60;99.90;;;;;;5034924;28;20234;-74
2021/01/07 00:05:06;;;;;;;24.60;15.43;;;3.60;99.90;;;;;;5035436;28;20413;-74
2021/01/07 00:07:32;;;;;;;28.13;16.07;;;3.60;99.90;;;;;;5033907;28;20463;-74
2021/01/07 00:09:58;;;;;;;23.87;15.63;;;3.60;99.90;;;;;;5034591;28;20403;-74
2021/01/07 00:12:23;;;;;;;25.30;15.77;;;3.70;99.90;;;;;;5033581;28;20580;-73
2021/01/07 00:14:49;;;;;;;21.87;16.20;;;3.60;99.90;;;;;;5033077;28;20262;-73
2021/01/07 00:17:14;;;;;;;27.33;17.23;;;3.60;99.90;;;;;;5034390;28;20285;-74
2021/01/07 00:19:40;;;;;;;21.83;14.93;;;3.70;99.90;;;;;;5034238;28;20171;-74
2021/01/07 00:22:06;;;;;;;23.13;15.50;;;3.70;99.90;;;;;;5033665;28;20196;-73
2021/01/07 00:24:31;;;;;;;26.30;15.70;;;3.70;99.90;;;;;;5034513;28;20206;-74
2021/01/07 00:26:57;;;;;;;22.50;15.03;;;3.80;99.90;;;;;;5034520;28;20233;-74
2021/01/07 00:29:22;;;;;;;24.50;15.50;;;3.80;99.90;;;;;;5034280;28;20637;-74
2021/01/07 00:31:48;;;;;;;26.10;15.40;;;3.90;99.90;;;;;;5034554;28;20176;-74
2021/01/07 00:34:14;;;;;;;21.70;14.90;;;3.90;99.90;;;;;;5033480;28;20199;-74
2021/01/07 00:36:39;;;;;;;24.20;16.50;;;3.90;99.90;;;;;;5033295;28;20282;-74
2021/01/07 00:39:05;;;;;;;24.90;15.70;;;4.00;99.90;;;;;;5033947;28;20445;-74
2021/01/07 00:41:31;;;;;;;26.80;16.27;;;4.00;99.90;;;;;;5033578;28;20578;-74
2021/01/07 00:43:56;;;;;;;23.17;14.90;;;4.00;99.90;;;;;;5032397;28;20591;-74
2021/01/07 00:46:22;;;;;;;24.03;15.77;;;4.00;99.90;;;;;;5033415;28;20191;-74
2021/01/07 00:48:48;;;;;;;23.30;15.90;;;4.00;99.90;;;;;;5032384;28;20184;-74
2021/01/07 00:51:14;;;;;;;22.83;15.30;;;4.00;99.90;;;;;;5033587;28;20163;-74
2021/01/07 00:53:40;;;;;;;25.60;17.00;;;4.10;99.90;;;;;;5032179;28;20445;-74
2021/01/07 00:56:05;;;;;;;22.50;15.20;;;4.10;99.90;;;;;;5033520;28;20457;-74
2021/01/07 00:58:31;;;;;;;22.00;14.43;;;4.10;99.90;;;;;;5033657;28;20206;-74
2021/01/07 01:00:56;;;;;;;20.27;14.27;;;4.10;99.90;;;;;;5033112;28;20178;-74
2021/01/07 01:03:22;;;;;;;27.37;15.00;;;4.20;99.90;;;;;;5047752;28;20208;-74
2021/01/07 01:05:48;;;;;;;20.73;14.20;;;4.20;99.90;;;;;;5053890;28;20246;-74
2021/01/07 01:08:16;;;;;;;20.60;15.07;;;4.30;99.90;;;;;;5053361;28;20423;-74
2021/01/07 01:10:47;;;;;;;19.83;13.80;;;4.30;99.90;;;;;;5053393;28;20409;-74
2021/01/07 01:13:14;;;;;;;21.17;14.07;;;4.30;99.90;;;;;;5034544;28;20445;-75
2021/01/07 01:15:40;;;;;;;20.57;13.63;;;4.30;99.90;;;;;;5033666;28;20465;-74
2021/01/07 01:18:09;;;;;;;22.70;14.30;;;4.40;99.90;;;;;;5033128;28;20402;-74
2021/01/07 01:20:34;;;;;;;25.30;16.53;;;4.30;99.90;;;;;;5031472;28;20167;-74
2021/01/07 01:23:00;;;;;;;22.73;15.10;;;4.20;99.90;;;;;;5032715;28;20443;-75
2021/01/07 01:25:27;;;;;;;24.60;15.90;;;4.30;99.90;;;;;;5032841;28;20182;-74
2021/01/07 01:27:53;;;;;;;31.33;15.90;;;4.30;99.90;;;;;;5064780;28;20410;-74
2021/01/07 01:30:19;;;;;;;28.00;15.87;;;4.30;99.90;;;;;;5031820;28;21148;-74
2021/01/07 01:32:45;;;;;;;27.17;17.03;;;4.00;99.90;;;;;;5032760;28;20733;-74
2021/01/07 01:35:12;;;;;;;25.00;16.53;;;4.10;99.90;;;;;;5032599;28;20421;-74
2021/01/07 01:37:38;;;;;;;28.17;18.10;;;3.90;99.90;;;;;;5033218;28;20175;-74
2021/01/07 01:40:06;;;;;;;29.63;18.57;;;3.80;99.90;;;;;;5032771;28;20418;-74
2021/01/07 01:42:32;;;;;;;24.33;16.93;;;3.90;99.90;;;;;;5030166;28;20455;-74
2021/01/07 01:44:57;;;;;;;36.37;18.20;;;3.80;99.90;;;;;;5025184;28;20442;-74
2021/01/07 01:47:23;;;;;;;29.03;16.63;;;3.90;99.90;;;;;;5035356;28;20182;-74
2021/01/07 01:49:50;;;;;;;25.00;16.57;;;4.10;99.90;;;;;;5025704;28;20171;-74
2021/01/07 01:52:17;;;;;;;32.03;15.73;;;4.10;99.90;;;;;;5029816;28;20181;-74
2021/01/07 01:54:44;;;;;;;24.53;15.20;;;4.10;99.90;;;;;;5029487;28;20431;-74
2021/01/07 01:57:13;;;;;;;27.10;14.27;;;4.10;99.90;;;;;;5024252;28;20557;-74
2021/01/07 01:59:39;;;;;;;24.43;17.27;;;4.00;99.90;;;;;;5027843;28;20426;-74
2021/01/07 02:02:09;;;;;;;26.93;16.00;;;4.00;99.90;;;;;;5029420;28;20425;-74
2021/01/07 02:04:35;;;;;;;24.47;14.30;;;4.10;99.90;;;;;;5029492;28;20458;-73
2021/01/07 02:07:03;;;;;;;22.20;14.43;;;4.00;99.90;;;;;;5031353;28;20838;-73
2021/01/07 02:09:29;;;;;;;30.40;17.37;;;4.00;99.90;;;;;;5032025;28;20425;-74
2021/01/07 02:11:58;;;;;;;27.80;16.20;;;4.00;99.90;;;;;;5028614;28;20918;-74
2021/01/07 02:14:24;;;;;;;23.50;15.20;;;4.10;99.90;;;;;;5046787;28;20449;-74
2021/01/07 02:16:49;;;;;;;25.57;15.60;;;4.00;99.90;;;;;;5030296;28;20461;-73
2021/01/07 02:19:15;;;;;;;24.00;14.90;;;3.90;99.90;;;;;;5029945;28;20430;-74
2021/01/07 02:21:40;;;;;;;21.03;14.00;;;3.90;99.90;;;;;;5030295;28;20183;-74
2021/01/07 02:24:07;;;;;;;28.83;16.83;;;4.00;99.90;;;;;;5029739;28;20214;-74
2021/01/07 02:26:34;;;;;;;24.40;15.73;;;4.00;99.90;;;;;;5029519;28;20185;-74
2021/01/07 02:28:59;;;;;;;28.87;15.83;;;4.00;99.90;;;;;;5029840;28;21024;-74
2021/01/07 02:31:25;;;;;;;28.93;16.20;;;4.00;99.90;;;;;;5030502;28;20451;-74
2021/01/07 02:33:50;;;;;;;22.60;15.00;;;4.00;99.90;;;;;;5030417;28;20253;-73
2021/01/07 02:36:16;;;;;;;24.00;15.27;;;3.70;99.90;;;;;;5029583;28;20211;-73
2021/01/07 02:38:42;;;;;;;24.17;16.10;;;3.90;99.90;;;;;;5065627;28;20209;-73
2021/01/07 02:41:08;;;;;;;30.97;16.73;;;3.80;99.90;;;;;;5032654;28;20178;-74
2021/01/07 02:43:33;;;;;;;26.13;15.67;;;3.70;99.90;;;;;;5034056;28;20198;-74
2021/01/07 02:45:59;;;;;;;29.50;16.73;;;3.80;99.90;;;;;;5031965;28;20483;-74
2021/01/07 02:48:25;;;;;;;32.60;17.37;;;3.70;99.90;;;;;;5035918;28;20168;-72
2021/01/07 02:50:50;;;;;;;25.87;16.60;;;3.30;99.90;;;;;;5032640;28;20548;-72
2021/01/07 02:53:16;;;;;;;32.80;19.30;;;3.30;99.90;;;;;;5032878;28;20203;-72
2021/01/07 02:55:42;;;;;;;33.17;20.10;;;3.40;99.90;;;;;;5030250;28;20238;-73
2021/01/07 02:58:07;;;;;;;26.13;16.37;;;3.40;99.90;;;;;;5034249;28;20604;-72
2021/01/07 03:00:33;;;;;;;29.50;16.40;;;3.40;99.90;;;;;;5033357;28;20180;-72
2021/01/07 03:02:59;;;;;;;28.73;17.37;;;3.40;99.90;;;;;;5034151;28;20195;-72
2021/01/07 03:05:24;;;;;;;28.43;17.20;;;3.50;99.90;;;;;;5035599;28;20194;-72
2021/01/07 03:07:50;;;;;;;30.33;18.33;;;3.50;99.90;;;;;;5031961;28;20178;-72
2021/01/07 03:10:16;;;;;;;31.67;15.07;;;3.50;99.90;;;;;;5033864;28;20759;-72
2021/01/07 03:12:41;;;;;;;30.90;19.20;;;3.40;99.90;;;;;;5033192;28;20207;-72
2021/01/07 03:15:07;;;;;;;28.93;16.30;;;3.30;99.90;;;;;;5031139;28;20706;-72
2021/01/07 03:17:33;;;;;;;27.17;15.93;;;3.10;99.90;;;;;;5033187;28;20172;-72
2021/01/07 03:19:59;;;;;;;26.13;16.90;;;3.00;99.90;;;;;;5034411;28;20508;-72
2021/01/07 03:22:25;;;;;;;31.53;16.97;;;2.80;99.90;;;;;;5032389;28;20168;-72
2021/01/07 03:24:51;;;;;;;27.50;15.93;;;2.90;99.90;;;;;;5033915;28;20615;-72
2021/01/07 03:27:16;;;;;;;27.60;15.13;;;2.90;99.90;;;;;;5035090;28;20635;-72
2021/01/07 03:29:42;;;;;;;29.50;16.40;;;2.90;99.90;;;;;;5032899;28;20660;-72
2021/01/07 03:32:08;;;;;;;26.80;18.07;;;3.00;99.90;;;;;;5033771;28;20240;-72
2021/01/07 03:34:33;;;;;;;30.53;17.47;;;2.90;99.90;;;;;;5034187;28;20176;-72
2021/01/07 03:36:59;;;;;;;35.83;17.53;;;3.00;99.90;;;;;;5033848;28;20202;-72
2021/01/07 03:39:25;;;;;;;33.17;18.03;;;2.90;99.90;;;;;;5033918;28;20172;-72
2021/01/07 03:41:51;;;;;;;35.27;17.60;;;3.00;99.90;;;;;;5034113;28;20410;-72
2021/01/07 03:44:17;;;;;;;32.10;17.00;;;3.10;99.90;;;;;;5033349;28;20479;-72
2021/01/07 03:46:42;;;;;;;29.33;17.33;;;3.00;99.90;;;;;;5032902;28;20238;-72
2021/01/07 03:49:08;;;;;;;29.10;17.77;;;2.80;99.90;;;;;;5031422;28;20175;-72
2021/01/07 03:51:34;;;;;;;29.97;16.87;;;2.90;99.90;;;;;;5032929;28;20176;-72
2021/01/07 03:54:00;;;;;;;29.23;17.93;;;3.10;99.90;;;;;;5034092;28;20194;-72
2021/01/07 03:56:26;;;;;;;28.40;17.37;;;3.00;99.90;;;;;;5033599;28;20503;-72
2021/01/07 03:58:52;;;;;;;30.43;16.60;;;3.10;99.90;;;;;;5033316;28;20413;-72
2021/01/07 04:01:17;;;;;;;30.20;15.97;;;3.30;99.90;;;;;;5031441;28;20258;-72
2021/01/07 04:03:43;;;;;;;30.33;16.07;;;3.40;99.90;;;;;;5033044;28;20203;-72
2021/01/07 04:06:09;;;;;;;27.07;15.20;;;3.20;99.90;;;;;;5028638;28;20437;-72
2021/01/07 04:08:36;;;;;;;25.63;16.77;;;3.30;99.90;;;;;;5034553;28;20440;-73
2021/01/07 04:11:02;;;;;;;31.23;18.73;;;3.30;99.90;;;;;;5034317;28;20430;-72
2021/01/07 04:13:28;;;;;;;29.10;17.80;;;3.30;99.90;;;;;;5033090;28;20544;-72
2021/01/07 04:15:54;;;;;;;33.97;16.27;;;3.30;99.90;;;;;;5032600;28;20450;-72
2021/01/07 04:18:20;;;;;;;32.37;18.07;;;3.30;99.90;;;;;;5031982;28;20457;-72
2021/01/07 04:20:46;;;;;;;31.10;17.23;;;3.20;99.90;;;;;;5032557;28;20186;-72
2021/01/07 04:23:11;;;;;;;32.20;18.80;;;3.20;99.90;;;;;;5032590;28;20203;-72
2021/01/07 04:25:37;;;;;;;34.87;19.77;;;3.10;99.90;;;;;;5032651;28;20179;-72
2021/01/07 04:28:02;;;;;;;32.20;16.93;;;3.00;99.90;;;;;;5034092;28;20325;-72
2021/01/07 04:30:28;;;;;;;28.43;18.07;;;3.00;99.90;;;;;;5031508;28;20179;-72
2021/01/07 04:32:54;;;;;;;36.43;20.90;;;2.90;99.90;;;;;;5033102;28;20198;-72
2021/01/07 04:35:20;;;;;;;38.60;19.80;;;2.80;99.90;;;;;;5032900;28;20265;-72
2021/01/07 04:37:46;;;;;;;35.70;20.13;;;2.90;99.90;;;;;;5033268;28;20510;-72
2021/01/07 04:40:12;;;;;;;33.23;18.50;;;2.90;99.90;;;;;;5032823;28;20440;-72
2021/01/07 04:42:38;;;;;;;29.20;18.33;;;2.80;99.90;;;;;;5032793;28;20206;-72
2021/01/07 04:45:05;;;;;;;35.87;17.50;;;2.70;99.90;;;;;;5029393;28;20428;-72
2021/01/07 04:47:31;;;;;;;35.60;20.67;;;2.80;99.90;;;;;;5031685;28;20189;-72
2021/01/07 04:49:58;;;;;;;33.07;19.07;;;2.70;99.90;;;;;;5029304;28;20458;-72
2021/01/07 04:52:24;;;;;;;40.80;22.03;;;2.70;99.90;;;;;;5031176;28;20465;-72
2021/01/07 04:54:53;;;;;;;33.00;18.70;;;2.80;99.90;;;;;;5020947;28;20485;-72
2021/01/07 04:57:22;;;;;;;38.73;20.07;;;2.70;99.90;;;;;;5031700;28;20511;-73
2021/01/07 04:59:48;;;;;;;31.33;20.40;;;2.80;99.90;;;;;;5031771;28;20430;-72
2021/01/07 05:02:14;;;;;;;42.17;21.73;;;2.80;99.90;;;;;;5032204;28;20425;-72
2021/01/07 05:04:51;;;;;;;50.27;20.60;;;2.60;99.90;;;;;;5032571;28;20535;-72
2021/01/07 05:07:20;;;;;;;42.40;23.17;;;2.60;99.90;;;;;;5062845;28;20443;-72
2021/01/07 05:09:47;;;;;;;39.80;21.87;;;2.60;99.90;;;;;;5025577;28;20955;-72
2021/01/07 05:12:14;;;;;;;39.63;22.03;;;2.60;99.90;;;;;;5029540;28;20452;-73
2021/01/07 05:14:46;;;;;;;39.13;21.40;;;2.60;99.90;;;;;;5033193;28;20398;-72
2021/01/07 05:17:13;;;;;;;35.80;22.30;;;2.70;99.90;;;;;;5032220;28;20629;-72
2021/01/07 05:19:39;;;;;;;37.97;21.77;;;2.60;99.90;;;;;;5032695;28;20418;-72
2021/01/07 05:22:06;;;;;;;43.43;23.97;;;2.60;99.90;;;;;;5032073;28;20421;-72
2021/01/07 05:24:33;;;;;;;40.87;22.23;;;2.50;99.90;;;;;;5031717;28;20553;-72
2021/01/07 05:27:21;;;;;;;40.77;24.40;;;2.50;99.90;;;;;;5032090;28;20795;-72
2021/01/07 05:29:47;;;;;;;37.53;22.73;;;2.50;99.90;;;;;;5031269;28;20516;-72
2021/01/07 05:32:13;;;;;;;43.37;24.87;;;2.40;99.90;;;;;;5030910;28;20795;-72
2021/01/07 05:34:46;;;;;;;43.00;24.17;;;2.50;99.90;;;;;;5032215;28;20446;-72
2021/01/07 05:37:18;;;;;;;41.67;22.80;;;2.40;99.90;;;;;;5029461;28;20207;-72
2021/01/07 05:39:46;;;;;;;40.80;23.97;;;2.40;99.90;;;;;;5029090;28;20433;-72
2021/01/07 05:42:12;;;;;;;41.27;22.50;;;2.40;99.90;;;;;;5031679;28;20940;-72
2021/01/07 05:44:44;;;;;;;47.57;22.87;;;2.40;99.90;;;;;;5029904;28;20436;-72
2021/01/07 05:47:11;;;;;;;39.97;23.40;;;2.50;99.90;;;;;;5021406;28;20281;-72
2021/01/07 05:49:37;;;;;;;44.27;23.73;;;2.50;99.90;;;;;;5027361;28;20845;-72
2021/01/07 05:52:07;;;;;;;45.40;25.27;;;2.50;99.90;;;;;;5029180;28;20796;-72
2021/01/07 05:54:33;;;;;;;52.43;26.60;;;2.50;99.90;;;;;;5031534;28;20450;-72
2021/01/07 05:57:04;;;;;;;45.93;24.57;;;2.60;99.90;;;;;;5031792;28;21014;-72
2021/01/07 05:59:35;;;;;;;45.07;26.43;;;2.60;99.90;;;;;;5030356;28;20434;-72
2021/01/07 06:02:03;;;;;;;53.30;26.40;;;2.50;99.90;;;;;;5022035;28;20437;-72
2021/01/07 06:04:33;;;;;;;48.43;27.60;;;2.70;99.90;;;;;;5030566;28;20814;-72
2021/01/07 06:07:00;;;;;;;55.23;26.83;;;2.60;99.90;;;;;;5031351;28;20428;-72
2021/01/07 06:09:29;;;;;;;60.97;31.70;;;2.50;99.90;;;;;;5031029;28;20460;-72
2021/01/07 06:11:57;;;;;;;46.03;25.73;;;2.50;99.90;;;;;;5030475;28;20528;-72
2021/01/07 06:14:23;;;;;;;54.90;28.93;;;2.50;99.90;;;;;;5025508;28;20486;-72
2021/01/07 06:16:49;;;;;;;48.43;26.43;;;2.60;99.90;;;;;;5030322;28;20539;-72
2021/01/07 06:19:34;;;;;;;55.87;27.03;;;2.50;99.90;;;;;;5029088;28;20833;-72
2021/01/07 06:22:01;;;;;;;43.37;25.83;;;2.60;99.90;;;;;;5032011;28;20652;-72
2021/01/07 06:24:30;;;;;;;57.43;28.60;;;2.60;99.90;;;;;;5064255;28;21020;-72
2021/01/07 06:26:56;;;;;;;49.77;26.03;;;2.60;99.90;;;;;;5030330;28;20433;-72
2021/01/07 06:29:21;;;;;;;46.07;26.50;;;2.70;99.90;;;;;;5029827;28;20438;-72
2021/01/07 06:31:57;;;;;;;50.10;27.67;;;2.80;99.90;;;;;;5030086;28;20210;-72
2021/01/07 06:34:26;;;;;;;46.17;26.17;;;2.70;99.90;;;;;;5030927;28;20195;-72
2021/01/07 06:36:53;;;;;;;48.17;25.80;;;2.70;99.90;;;;;;5031220;28;20462;-72
2021/01/07 06:39:22;;;;;;;47.00;25.90;;;2.80;99.90;;;;;;5031797;28;21258;-72
2021/01/07 06:41:53;;;;;;;48.50;25.70;;;2.80;99.90;;;;;;5031505;28;20448;-72
2021/01/07 06:44:20;;;;;;;49.37;26.17;;;2.80;99.90;;;;;;5029925;28;20450;-72
2021/01/07 06:46:49;;;;;;;45.93;26.60;;;2.90;99.90;;;;;;5029258;28;20979;-72
2021/01/07 06:49:28;;;;;;;40.37;25.67;;;2.90;99.90;;;;;;5031103;28;20791;-72
2021/01/07 06:51:58;;;;;;;41.80;23.00;;;3.00;99.90;;;;;;5029473;28;20955;-72
2021/01/07 06:54:27;;;;;;;40.50;21.50;;;3.10;99.90;;;;;;5031381;28;20442;-72
2021/01/07 06:56:54;;;;;;;38.13;23.10;;;3.10;99.90;;;;;;5030002;28;20450;-72
2021/01/07 06:59:23;;;;;;;37.77;20.23;;;3.00;99.90;;;;;;5031772;28;20434;-72
2021/01/07 07:01:55;;;;;;;32.93;19.90;;;3.10;99.90;;;;;;5030499;28;20445;-73
2021/01/07 07:04:31;;;;;;;37.97;21.20;;;3.10;99.90;;;;;;5030861;28;20984;-72
2021/01/07 07:07:07;;;;;;;32.20;19.70;;;3.10;99.90;;;;;;5029716;28;20438;-72
2021/01/07 07:09:39;;;;;;;36.83;21.90;;;3.10;99.90;;;;;;5030063;28;20430;-72
2021/01/07 07:12:05;;;;;;;34.20;19.90;;;2.90;99.90;;;;;;5030557;28;20459;-72
2021/01/07 07:14:32;;;;;;;35.80;20.60;;;2.80;99.90;;;;;;5030435;28;21020;-72
2021/01/07 07:17:05;;;;;;;36.03;20.73;;;2.90;99.90;;;;;;5029255;28;20496;-72
2021/01/07 07:19:30;;;;;;;37.00;20.10;;;3.00;99.90;;;;;;5024707;28;20430;-72
2021/01/07 07:22:03;;;;;;;34.93;18.37;;;3.10;99.90;;;;;;5029905;28;20433;-72
2021/01/07 07:24:42;;;;;;;32.60;20.47;;;3.10;99.90;;;;;;5034102;28;20660;-72
2021/01/07 07:27:11;;;;;;;30.90;18.87;;;3.10;99.90;;;;;;5034066;28;20479;-72
2021/01/07 07:29:39;;;;;;;41.30;21.30;;;3.20;99.90;;;;;;5034260;28;20803;-72
2021/01/07 07:32:28;;;;;;;40.53;24.00;;;3.20;99.90;;;;;;5033831;28;20525;-72
2021/01/07 07:34:55;;;;;;;39.07;20.77;;;3.30;99.90;;;;;;5032805;28;20489;-72
2021/01/07 07:37:25;;;;;;;48.90;24.80;;;3.40;99.90;;;;;;5033437;28;20464;-72
2021/01/07 07:40:02;;;;;;;49.37;27.87;;;3.50;99.90;;;;;;5034517;28;20421;-72
2021/01/07 07:42:29;;;;;;;46.40;25.17;;;3.50;99.90;;;;;;5033125;28;20425;-73
2021/01/07 07:44:56;;;;;;;43.43;23.37;;;3.50;99.90;;;;;;5034178;28;20413;-72
2021/01/07 07:47:22;;;;;;;39.10;24.03;;;3.20;99.90;;;;;;5034519;28;20444;-71
2021/01/07 07:49:58;;;;;;;39.73;23.33;;;3.20;99.90;;;;;;5034908;28;20405;-72
2021/01/07 07:52:25;;;;;;;48.60;25.33;;;3.30;99.90;;;;;;5032320;28;20434;-72
2021/01/07 07:55:03;;;;;;;48.73;27.07;;;3.30;99.90;;;;;;5015112;28;20849;-71
2021/01/07 07:57:29;;;;;;;42.97;25.97;;;3.30;99.90;;;;;;5027897;28;20453;-72
2021/01/07 08:00:10;;;;;;;49.27;27.17;;;3.40;99.90;;;;;;5061198;28;20993;-72
2021/01/07 08:02:36;;;;;;;43.00;25.30;;;3.20;99.90;;;;;;5031398;28;20188;-72
2021/01/07 08:05:01;;;;;;;51.43;27.87;;;3.20;99.90;;;;;;5034391;28;20426;-72
2021/01/07 08:07:27;;;;;;;46.50;25.30;;;3.40;99.90;;;;;;5034056;28;20414;-72
2021/01/07 08:09:53;;;;;;;49.73;26.83;;;3.40;99.90;;;;;;5032688;28;20589;-72
2021/01/07 08:12:19;;;;;;;41.63;24.70;;;3.40;99.90;;;;;;5033953;28;20429;-72
2021/01/07 08:14:44;;;;;;;55.67;26.03;;;3.20;99.90;;;;;;5034489;28;20242;-72
2021/01/07 08:17:10;;;;;;;46.67;27.70;;;3.20;99.90;;;;;;5034242;28;20301;-72
2021/01/07 08:19:36;;;;;;;57.50;32.63;;;3.00;99.90;;;;;;5034067;28;20197;-72
2021/01/07 08:22:03;;;;;;;52.43;26.17;;;2.90;99.90;;;;;;5033909;28;20217;-72
2021/01/07 08:24:29;;;;;;;48.07;23.60;;;2.80;99.90;;;;;;5033835;28;20438;-72
2021/01/07 08:27:16;;;;;;;54.13;29.93;;;2.80;99.90;;;;;;5034275;28;20421;-72
2021/01/07 08:29:51;;;;;;;52.63;26.90;;;2.70;99.90;;;;;;5034037;28;20160;-72
2021/01/07 08:32:24;;;;;;;50.97;26.50;;;2.60;99.90;;;;;;5033888;28;20405;-72
2021/01/07 08:34:50;;;;;;;52.03;26.10;;;2.50;99.90;;;;;;5032863;28;20402;-72
2021/01/07 08:37:21;;;;;;;48.83;24.70;;;2.70;99.90;;;;;;5033587;28;20465;-72
2021/01/07 08:39:47;;;;;;;49.37;28.80;;;2.80;99.90;;;;;;5014041;28;20964;-72
2021/01/07 08:42:14;;;;;;;52.80;26.80;;;2.80;99.90;;;;;;5016596;28;20589;-71
2021/01/07 08:44:40;;;;;;;47.90;24.87;;;2.60;99.90;;;;;;5033648;28;20198;-72
2021/01/07 08:47:23;;;;;;;49.10;25.43;;;2.50;99.90;;;;;;5033044;28;21009;-72
2021/01/07 08:50:13;;;;;;;50.80;26.30;;;2.70;99.90;;;;;;5012672;28;20423;-72
2021/01/07 08:52:53;;;;;;;46.43;24.13;;;2.60;99.90;;;;;;5026336;28;20445;-71
2021/01/07 08:55:20;;;;;;;50.00;25.80;;;2.60;99.90;;;;;;5030650;28;20422;-72
2021/01/07 08:57:46;;;;;;;44.87;24.63;;;2.60;99.90;;;;;;5028789;28;20493;-72
2021/01/07 09:00:17;;;;;;;49.53;27.60;;;2.60;99.90;;;;;;5027211;28;20492;-71
2021/01/07 09:02:42;;;;;;;43.83;21.40;;;2.70;99.90;;;;;;5025361;28;20517;-72
2021/01/07 09:05:09;;;;;;;47.47;25.60;;;2.90;99.90;;;;;;5025492;28;20465;-72
2021/01/07 09:07:35;;;;;;;39.37;21.97;;;2.90;99.90;;;;;;5022938;28;20406;-73
2021/01/07 09:10:00;;;;;;;40.03;23.17;;;3.10;99.90;;;;;;5025348;28;20430;-72
2021/01/07 09:12:34;;;;;;;43.00;22.87;;;3.30;99.90;;;;;;5023723;28;20175;-72
2021/01/07 09:15:10;;;;;;;39.90;23.10;;;3.50;99.90;;;;;;5024809;28;20182;-72
2021/01/07 09:17:43;;;;;;;34.63;21.50;;;3.60;99.90;;;;;;5024712;28;20453;-72
2021/01/07 09:20:20;;;;;;;34.50;21.10;;;3.80;99.90;;;;;;5025749;28;20418;-72
2021/01/07 09:22:47;;;;;;;34.87;20.13;;;3.90;99.90;;;;;;5024191;28;20431;-72
2021/01/07 09:25:17;;;;;;;31.83;18.83;;;4.30;99.90;;;;;;5025274;28;20410;-71
2021/01/07 09:27:44;;;;;;;29.00;18.93;;;4.20;99.90;;;;;;5029709;28;20430;-71
2021/01/07 09:30:10;;;;;;;28.67;16.30;;;4.30;99.90;;;;;;5022711;28;20458;-72
2021/01/07 09:32:36;;;;;;;32.20;19.27;;;4.10;99.90;;;;;;5023704;28;21033;-72
2021/01/07 09:35:02;;;;;;;22.37;14.50;;;3.90;99.90;;;;;;5023705;28;20493;-72
2021/01/07 09:37:28;;;;;;;22.73;15.43;;;3.80;99.90;;;;;;5025696;28;20688;-72
2021/01/07 09:39:55;;;;;;;25.60;14.93;;;3.90;99.90;;;;;;5024438;28;20418;-72
2021/01/07 09:42:22;;;;;;;29.73;15.53;;;4.00;99.90;;;;;;5025607;28;20160;-72
2021/01/07 09:44:48;;;;;;;19.80;14.00;;;4.00;99.90;;;;;;5022124;28;20450;-71
2021/01/07 09:47:14;;;;;;;18.50;11.90;;;4.00;99.90;;;;;;5026961;28;20446;-72
2021/01/07 09:49:40;;;;;;;21.43;14.07;;;4.10;99.90;;;;;;5025475;28;20442;-74
2021/01/07 09:52:06;;;;;;;20.33;13.83;;;4.20;99.90;;;;;;5023695;28;20422;-73
2021/01/07 09:54:33;;;;;;;17.10;11.13;;;4.30;99.90;;;;;;5029283;28;20517;-73
2021/01/07 09:57:00;;;;;;;20.57;11.80;;;4.20;99.90;;;;;;5023508;28;20454;-73
2021/01/07 09:59:28;;;;;;;18.23;12.13;;;4.20;99.90;;;;;;5025737;28;20406;-73
2021/01/07 10:02:20;;;;;;;15.93;10.30;;;4.20;99.90;;;;;;5024735;28;20424;-73
2021/01/07 10:04:46;;;;;;;18.30;11.83;;;4.30;99.90;;;;;;5024280;28;20469;-74
2021/01/07 10:07:13;;;;;;;14.47;9.60;;;4.20;99.90;;;;;;5025706;28;20426;-74
2021/01/07 10:09:39;;;;;;;18.67;11.50;;;4.20;99.90;;;;;;5023358;28;20219;-75
2021/01/07 10:12:05;;;;;;;16.23;11.33;;;4.20;99.90;;;;;;5022442;28;20415;-75
2021/01/07 10:14:32;;;;;;;14.50;10.20;;;4.10;99.90;;;;;;5026405;28;20441;-75
2021/01/07 10:17:03;;;;;;;14.93;10.80;;;4.30;99.90;;;;;;5025174;28;20452;-74
2021/01/07 10:19:31;;;;;;;15.70;11.40;;;4.20;99.90;;;;;;5024568;28;20398;-75
2021/01/07 10:22:14;;;;;;;18.27;10.60;;;4.20;99.90;;;;;;5023847;28;20437;-75
2021/01/07 10:24:45;;;;;;;15.10;10.17;;;4.30;99.90;;;;;;5027448;28;20943;-74
2021/01/07 10:27:14;;;;;;;14.83;10.43;;;4.30;99.90;;;;;;5022001;28;20445;-75
2021/01/07 10:29:40;;;;;;;19.37;11.60;;;4.30;99.90;;;;;;5023774;28;20929;-75
2021/01/07 10:32:11;;;;;;;12.33;9.33;;;4.30;99.90;;;;;;5032178;28;20434;-73
2021/01/07 10:34:43;;;;;;;14.47;10.20;;;4.30;99.90;;;;;;5032088;28;20422;-73
2021/01/07 10:37:09;;;;;;;13.10;9.10;;;4.30;99.90;;;;;;5031879;28;20453;-74
2021/01/07 10:39:40;;;;;;;18.03;11.80;;;4.50;99.90;;;;;;5030684;28;20780;-74
2021/01/07 10:42:12;;;;;;;15.33;10.27;;;4.60;99.90;;;;;;5031494;28;20531;-73
2021/01/07 10:44:39;;;;;;;12.13;8.93;;;4.50;99.90;;;;;;5031930;28;20456;-74
2021/01/07 10:47:07;;;;;;;15.73;11.00;;;4.20;99.90;;;;;;5031846;28;20437;-74
2021/01/07 10:49:34;;;;;;;20.33;12.90;;;4.10;99.90;;;;;;5031945;28;20414;-74
2021/01/07 10:52:09;;;;;;;16.53;13.10;;;4.30;99.90;;;;;;5031463;28;20766;-73
2021/01/07 10:55:04;;;;;;;19.17;12.93;;;4.20;99.90;;;;;;5031221;28;20915;-74
2021/01/07 10:57:53;;;;;;;21.10;13.60;;;4.30;99.90;;;;;;5031532;28;21036;-74
2021/01/07 11:00:36;;;;;;;28.70;18.83;;;4.00;99.90;;;;;;5025775;28;20422;-74
2021/01/07 11:03:26;;;;;;;16.93;12.53;;;4.10;99.90;;;;;;5026319;28;20513;-74
2021/01/07 11:05:59;;;;;;;18.43;11.93;;;4.30;99.90;;;;;;5028837;28;20416;-74
2021/01/07 11:08:33;;;;;;;18.70;11.60;;;4.20;99.90;;;;;;5025769;28;20411;-73
2021/01/07 11:11:02;;;;;;;18.40;12.60;;;4.20;99.90;;;;;;5025934;28;20919;-73
2021/01/07 11:13:35;;;;;;;17.77;12.37;;;4.50;99.90;;;;;;5028818;28;20462;-74
2021/01/07 11:16:02;;;;;;;17.77;12.13;;;4.60;99.90;;;;;;5027930;28;20450;-74
2021/01/07 11:18:32;;;;;;;19.77;12.47;;;4.70;99.90;;;;;;5058517;28;20416;-74
2021/01/07 11:21:03;;;;;;;18.70;11.60;;;4.60;99.90;;;;;;5025828;28;20426;-74
2021/01/07 11:23:31;;;;;;;20.37;14.03;;;5.00;99.90;;;;;;5027204;28;20487;-74
2021/01/07 11:25:57;;;;;;;33.53;24.23;;;5.20;99.90;;;;;;5028598;28;20508;-74
2021/01/07 11:28:23;;;;;;;20.27;14.13;;;4.90;99.90;;;;;;5025139;28;20418;-74
2021/01/07 11:30:49;;;;;;;20.90;13.00;;;4.80;99.90;;;;;;5023820;28;20760;-74
2021/01/07 11:33:16;;;;;;;18.10;12.30;;;5.00;99.90;;;;;;5026503;28;20916;-74
2021/01/07 11:35:47;;;;;;;17.23;11.10;;;5.00;99.90;;;;;;5024786;28;20457;-74
2021/01/07 11:38:23;;;;;;;18.83;13.70;;;4.80;99.90;;;;;;5026097;28;20422;-74
2021/01/07 11:41:08;;;;;;;15.17;12.00;;;4.80;99.90;;;;;;5023484;28;21497;-74
2021/01/07 11:43:43;;;;;;;18.63;13.40;;;4.40;99.90;;;;;;5027733;28;20434;-74
2021/01/07 11:46:13;;;;;;;54.50;35.67;;;4.30;99.90;;;;;;5027733;28;20787;-74
2021/01/07 11:48:42;;;;;;;16.67;12.70;;;4.30;99.90;;;;;;5025123;28;20414;-74
2021/01/07 11:51:10;;;;;;;20.30;12.90;;;4.00;99.90;;;;;;5025766;28;20453;-74
2021/01/07 11:53:36;;;;;;;17.77;12.67;;;4.00;99.90;;;;;;5031056;28;20440;-74
2021/01/07 11:56:03;;;;;;;18.63;12.30;;;4.40;99.90;;;;;;5028438;28;20446;-74
2021/01/07 11:58:30;;;;;;;16.53;11.83;;;4.60;99.90;;;;;;5026234;28;20251;-74
2021/01/07 12:01:02;;;;;;;12.63;9.87;;;4.70;99.90;;;;;;5026148;28;20445;-74
2021/01/07 12:03:29;;;;;;;17.93;12.23;;;4.80;99.90;;;;;;5027464;28;20434;-73
2021/01/07 12:05:57;;;;;;;14.70;10.97;;;5.00;99.90;;;;;;5027613;28;20450;-74
2021/01/07 12:08:58;;;;;;;16.17;11.70;;;4.70;99.90;;;;;;5024237;28;20407;-74
2021/01/07 12:11:28;;;;;;;15.17;11.10;;;4.50;99.90;;;;;;5029138;28;20410;-74
2021/01/07 12:14:02;;;;;;;15.43;11.53;;;4.40;99.90;;;;;;5023192;28;20430;-74
2021/01/07 12:16:32;;;;;;;16.13;10.73;;;4.60;99.90;;;;;;5028812;28;20461;-74
2021/01/07 12:18:59;;;;;;;13.57;9.73;;;4.60;99.90;;;;;;5024707;28;20400;-71
2021/01/07 12:21:26;;;;;;;13.47;9.47;;;4.60;99.90;;;;;;5057939;28;20854;-74
2021/01/07 12:23:54;;;;;;;13.33;10.50;;;4.60;99.90;;;;;;5024848;28;20513;-74
2021/01/07 12:26:20;;;;;;;14.20;9.67;;;4.40;99.90;;;;;;5024829;28;20422;-74
2021/01/07 12:28:50;;;;;;;12.60;9.50;;;4.30;99.90;;;;;;5023972;28;20426;-74
2021/01/07 12:31:17;;;;;;;19.20;11.80;;;4.10;99.90;;;;;;5027030;28;20418;-74
2021/01/07 12:34:03;;;;;;;12.13;10.23;;;4.30;99.90;;;;;;5023629;28;20948;-74
2021/01/07 12:36:41;;;;;;;12.70;9.90;;;4.30;99.90;;;;;;5027153;28;20496;-74
2021/01/07 12:39:33;;;;;;;12.40;9.10;;;4.40;99.90;;;;;;5026694;28;20465;-74
2021/01/07 12:42:02;;;;;;;14.53;9.37;;;4.40;99.90;;;;;;5025543;28;20419;-74
2021/01/07 12:44:31;;;;;;;15.60;10.10;;;4.10;99.90;;;;;;5024735;28;20418;-74